createdAt,value
2016-06-12T09:41:57.504Z,1004.08
2016-06-12T09:42:57.445Z,1004.06
2016-06-12T09:43:57.448Z,1004.06
2016-06-12T09:44:57.436Z,1004.06
2016-06-12T09:45:57.424Z,1004.06
2016-06-12T09:46:57.411Z,1004.02
2016-06-12T09:47:57.414Z,1004.04
2016-06-12T09:48:57.402Z,1004.05
2016-06-12T09:49:57.389Z,1004.07
2016-06-12T09:50:57.189Z,1004.03
2016-06-12T09:51:57.380Z,1004.02
2016-06-12T09:52:57.382Z,1004.01
2016-06-12T09:53:57.167Z,1004.05
2016-06-12T09:54:57.171Z,1004.1
2016-06-12T09:55:57.158Z,1004.1
2016-06-12T09:56:57.363Z,1004.08
2016-06-12T09:57:57.350Z,1004.06
2016-06-12T09:58:57.151Z,1004.09
2016-06-12T09:59:57.154Z,1004.04
2016-06-12T10:00:57.345Z,1004.03
2016-06-12T10:01:57.145Z,1004.03
2016-06-12T10:02:57.335Z,1004.02
2016-06-12T10:03:57.135Z,1004.04
2016-06-12T10:04:57.341Z,1003.99
2016-06-12T10:05:57.329Z,1004.03
2016-06-12T10:06:57.348Z,1004.04
2016-06-12T10:07:57.335Z,1004.02
2016-06-12T10:08:57.338Z,1004.02
2016-06-12T10:09:57.123Z,1004.05
2016-06-12T10:10:57.126Z,1004.03
2016-06-12T10:11:57.128Z,1004.01
2016-06-12T10:12:57.319Z,1004.02
2016-06-12T10:13:57.322Z,1003.99
2016-06-12T10:14:57.325Z,1004
2016-06-12T10:15:57.328Z,1003.96
2016-06-12T10:16:57.316Z,1003.94
2016-06-12T10:17:57.319Z,1003.95
2016-06-12T10:18:57.119Z,1003.96
2016-06-12T10:19:57.107Z,1003.94
2016-06-12T10:20:57.312Z,1003.91
2016-06-12T10:21:57.112Z,1003.94
2016-06-12T10:22:57.319Z,1003.95
2016-06-12T10:23:57.103Z,1003.93
2016-06-12T10:24:57.309Z,1003.93
2016-06-12T10:25:57.312Z,1003.94
2016-06-12T10:26:57.315Z,1003.93
2016-06-12T10:27:57.318Z,1003.92
2016-06-12T10:28:57.306Z,1003.96
2016-06-12T10:29:57.309Z,1003.93
2016-06-12T10:30:57.312Z,1003.95
2016-06-12T10:31:57.113Z,1003.94
2016-06-12T10:32:57.319Z,1003.97
2016-06-12T10:33:57.322Z,1003.93
2016-06-12T10:34:57.105Z,1003.95
2016-06-12T10:35:57.312Z,1003.96
2016-06-12T10:36:57.112Z,1003.94
2016-06-12T10:37:57.146Z,1003.97
2016-06-12T10:38:57.118Z,1004
2016-06-12T10:39:57.105Z,1003.97
2016-06-12T10:40:57.108Z,1003.96
2016-06-12T10:41:57.361Z,1003.9
2016-06-12T10:42:57.318Z,1003.9
2016-06-12T10:43:57.321Z,1003.92
2016-06-12T10:44:57.105Z,1003.92
2016-06-12T10:45:57.311Z,1003.92
2016-06-12T10:46:57.111Z,1003.93
2016-06-12T10:47:57.317Z,1003.89
2016-06-12T10:48:57.321Z,1003.9
2016-06-12T10:49:57.121Z,1003.88
2016-06-12T10:50:57.310Z,1003.88
2016-06-12T10:51:57.314Z,1003.88
2016-06-12T10:52:57.317Z,1003.9
2016-06-12T10:53:57.116Z,1003.85
2016-06-12T10:54:57.120Z,1003.86
2016-06-12T10:55:57.311Z,1003.85
2016-06-12T10:56:57.329Z,1003.8
2016-06-12T10:57:57.317Z,1003.81
2016-06-12T10:58:57.321Z,1003.79
2016-06-12T10:59:57.323Z,1003.78
2016-06-12T11:00:57.123Z,1003.79
2016-06-12T11:01:57.329Z,1003.74
2016-06-12T11:02:57.317Z,1003.75
2016-06-12T11:03:57.320Z,1003.72
2016-06-12T11:04:57.322Z,1003.72
2016-06-12T11:05:57.123Z,1003.71
2016-06-12T11:06:57.329Z,1003.68
2016-06-12T11:07:57.112Z,1003.68
2016-06-12T11:08:57.335Z,1003.69
2016-06-12T11:09:57.322Z,1003.7
2016-06-12T11:10:57.122Z,1003.64
2016-06-12T11:11:57.328Z,1003.66
2016-06-12T11:12:57.331Z,1003.64
2016-06-12T11:13:57.334Z,1003.64
2016-06-12T11:14:57.338Z,1003.62
2016-06-12T11:15:57.138Z,1003.64
2016-06-12T11:16:57.329Z,1003.65
2016-06-12T11:17:57.332Z,1003.66
2016-06-12T11:18:57.334Z,1003.56
2016-06-12T11:19:57.135Z,1003.62
2016-06-12T11:20:57.341Z,1003.56
2016-06-12T11:21:57.344Z,1003.52
2016-06-12T11:22:57.128Z,1003.56
2016-06-12T11:23:57.131Z,1003.53
2016-06-12T11:24:57.337Z,1003.55
2016-06-12T11:25:57.340Z,1003.52
2016-06-12T11:26:57.343Z,1003.54
2016-06-12T11:27:57.143Z,1003.55
2016-06-12T11:28:57.146Z,1003.54
2016-06-12T11:29:57.353Z,1003.51
2016-06-12T11:30:57.340Z,1003.5
2016-06-12T11:31:57.343Z,1003.5
2016-06-12T11:32:57.362Z,1003.46
2016-06-12T11:33:57.350Z,1003.47
2016-06-12T11:34:57.353Z,1003.46
2016-06-12T11:35:57.152Z,1003.46
2016-06-12T11:36:57.140Z,1003.46
2016-06-12T11:37:57.144Z,1003.42
2016-06-12T11:38:57.147Z,1003.42
2016-06-12T11:39:57.353Z,1003.35
2016-06-12T11:40:57.153Z,1003.35
2016-06-12T11:41:57.405Z,1003.35
2016-06-12T11:42:57.158Z,1003.32
2016-06-12T11:43:57.364Z,1003.33
2016-06-12T11:44:57.367Z,1003.35
2016-06-12T11:45:57.355Z,1003.35
2016-06-12T11:46:57.358Z,1003.36
2016-06-12T11:47:57.361Z,1003.37
2016-06-12T11:48:57.364Z,1003.38
2016-06-12T11:49:57.367Z,1003.4
2016-06-12T11:50:57.183Z,1003.34
2016-06-12T11:51:57.373Z,1003.32
2016-06-12T11:52:57.939Z,1003.32
2016-06-12T11:53:57.365Z,1003.35
2016-06-12T11:54:57.164Z,1003.29
2016-06-12T11:55:57.371Z,1003.31
2016-06-12T11:56:57.374Z,1003.31
2016-06-12T11:57:57.173Z,1003.27
2016-06-12T11:58:57.379Z,1003.34
2016-06-12T11:59:57.367Z,1003.28
2016-06-12T12:00:57.167Z,1003.3
2016-06-12T12:01:57.373Z,1003.3
2016-06-12T12:02:57.376Z,1003.28
2016-06-12T12:03:57.176Z,1003.26
2016-06-12T12:04:57.179Z,1003.26
2016-06-12T12:05:57.385Z,1003.22
2016-06-12T12:06:57.388Z,1003.25
2016-06-12T12:07:57.172Z,1003.24
2016-06-12T12:08:57.175Z,1003.26
2016-06-12T12:09:57.178Z,1003.24
2016-06-12T12:10:57.385Z,1003.21
2016-06-12T12:11:57.387Z,1003.2
2016-06-12T12:12:57.390Z,1003.17
2016-06-12T12:13:57.394Z,1003.19
2016-06-12T12:14:57.194Z,1003.16
2016-06-12T12:15:57.182Z,1003.13
2016-06-12T12:16:57.186Z,1003.15
2016-06-12T12:17:57.391Z,1003.19
2016-06-12T12:18:57.191Z,1003.16
2016-06-12T12:19:57.195Z,1003.13
2016-06-12T12:20:57.401Z,1003.18
2016-06-12T12:21:57.404Z,1003.15
2016-06-12T12:22:57.235Z,1003.12
2016-06-12T12:23:57.394Z,1003.14
2016-06-12T12:24:57.396Z,1003.09
2016-06-12T12:25:57.400Z,1003.12
2016-06-12T12:26:57.403Z,1003.11
2016-06-12T12:27:57.405Z,1003.13
2016-06-12T12:28:57.206Z,1003.08
2016-06-12T12:29:57.412Z,1003.1
2016-06-12T12:30:57.212Z,1003.06
2016-06-12T12:31:57.419Z,1003.08
2016-06-12T12:32:57.202Z,1003.05
2016-06-12T12:33:57.410Z,1003.05
2016-06-12T12:34:57.209Z,1003.03
2016-06-12T12:35:57.415Z,1003.04
2016-06-12T12:36:57.214Z,1003
2016-06-12T12:37:57.233Z,1003.05
2016-06-12T12:38:57.424Z,1003.02
2016-06-12T12:39:57.428Z,1003.02
2016-06-12T12:40:57.431Z,1003.05
2016-06-12T12:41:57.433Z,1003.04
2016-06-12T12:42:57.421Z,1003.04
2016-06-12T12:43:57.424Z,1003.02
2016-06-12T12:44:57.428Z,1003.05
2016-06-12T12:45:57.227Z,1003
2016-06-12T12:46:57.433Z,1003.03
2016-06-12T12:47:57.436Z,1003.01
2016-06-12T12:48:57.439Z,1003.03
2016-06-12T12:49:57.240Z,1003.01
2016-06-12T12:50:57.243Z,1003.01
2016-06-12T12:51:57.449Z,1002.98
2016-06-12T12:52:57.874Z,1003
2016-06-12T12:53:57.252Z,1003.01
2016-06-12T12:54:57.239Z,1003
2016-06-12T12:55:57.242Z,1002.98
2016-06-12T12:56:57.245Z,1002.96
2016-06-12T12:57:57.248Z,1003.01
2016-06-12T12:58:57.454Z,1002.97
2016-06-12T12:59:57.240Z,1002.98
2016-06-12T13:00:57.445Z,1002.93
2016-06-12T13:01:57.449Z,1002.97
2016-06-12T13:02:57.452Z,1002.95
2016-06-12T13:03:57.251Z,1002.96
2016-06-12T13:04:57.457Z,1002.92
2016-06-12T13:05:57.461Z,1002.95
2016-06-12T13:06:57.463Z,1002.93
2016-06-12T13:07:57.467Z,1002.93
2016-06-12T13:08:57.470Z,1002.93
2016-06-12T13:09:57.457Z,1002.94
2016-06-12T13:10:57.460Z,1002.95
2016-06-12T13:11:57.464Z,1002.92
2016-06-12T13:12:57.466Z,1002.91
2016-06-12T13:13:57.469Z,1002.92
2016-06-12T13:14:57.472Z,1002.92
2016-06-12T13:15:57.475Z,1002.9
2016-06-12T13:16:57.275Z,1002.91
2016-06-12T13:17:57.482Z,1002.87
2016-06-12T13:18:57.485Z,1002.9
2016-06-12T13:19:57.269Z,1002.9
2016-06-12T13:20:57.475Z,1002.87
2016-06-12T13:21:57.478Z,1002.86
2016-06-12T13:22:57.856Z,1002.85
2016-06-12T13:23:57.281Z,1002.86
2016-06-12T13:24:57.285Z,1002.83
2016-06-12T13:25:57.490Z,1002.85
2016-06-12T13:26:57.290Z,1002.87
2016-06-12T13:27:57.294Z,1002.84
2016-06-12T13:28:57.499Z,1002.85
2016-06-12T13:29:57.299Z,1002.82
2016-06-12T13:30:57.506Z,1002.82
2016-06-12T13:31:57.290Z,1002.79
2016-06-12T13:32:57.496Z,1002.78
2016-06-12T13:33:57.500Z,1002.73
2016-06-12T13:34:57.503Z,1002.71
2016-06-12T13:35:57.505Z,1002.73
2016-06-12T13:36:57.509Z,1002.7
2016-06-12T13:37:57.746Z,1002.73
2016-06-12T13:38:57.735Z,1002.75
2016-06-12T13:39:57.503Z,1002.71
2016-06-12T13:40:57.318Z,1002.73
2016-06-12T13:41:57.305Z,1002.73
2016-06-12T13:42:57.511Z,1002.69
2016-06-12T13:43:57.311Z,1002.69
2016-06-12T13:44:57.518Z,1002.69
2016-06-12T13:45:57.521Z,1002.66
2016-06-12T13:46:57.321Z,1002.68
2016-06-12T13:47:57.308Z,1002.68
2016-06-12T13:48:57.529Z,1002.75
2016-06-12T13:49:57.314Z,1002.78
2016-06-12T13:50:57.521Z,1002.77
2016-06-12T13:51:57.321Z,1002.8
2016-06-12T13:52:57.323Z,1002.78
2016-06-12T13:53:58.061Z,1002.77
2016-06-12T13:54:57.534Z,1002.77
2016-06-12T13:55:57.537Z,1002.78
2016-06-12T13:56:57.335Z,1002.78
2016-06-12T13:57:57.339Z,1002.78
2016-06-12T13:58:57.546Z,1002.82
2016-06-12T13:59:57.533Z,1002.85
2016-06-12T14:00:57.333Z,1002.88
2016-06-12T14:01:57.555Z,1002.96
2016-06-12T14:02:57.542Z,1003.05
2016-06-12T14:03:57.545Z,1003.1
2016-06-12T14:04:57.548Z,1003.25
2016-06-12T14:05:57.551Z,1003.31
2016-06-12T14:06:57.351Z,1003.46
2016-06-12T14:07:57.573Z,1003.48
2016-06-12T14:08:57.357Z,1003.49
2016-06-12T14:09:57.361Z,1003.56
2016-06-12T14:10:57.566Z,1003.59
2016-06-12T14:11:57.350Z,1003.63
2016-06-12T14:12:57.556Z,1003.6
2016-06-12T14:13:57.576Z,1003.59
2016-06-12T14:14:57.563Z,1003.58
2016-06-12T14:15:57.363Z,1003.53
2016-06-12T14:16:57.569Z,1003.45
2016-06-12T14:17:57.572Z,1003.43
2016-06-12T14:18:57.372Z,1003.39
2016-06-12T14:19:57.578Z,1003.35
2016-06-12T14:20:57.378Z,1003.32
2016-06-12T14:21:57.584Z,1003.32
2016-06-12T14:22:57.572Z,1003.36
2016-06-12T14:23:57.591Z,1003.38
2016-06-12T14:24:57.375Z,1003.34
2016-06-12T14:25:57.378Z,1003.32
2016-06-12T14:26:57.585Z,1003.29
2016-06-12T14:27:57.588Z,1003.27
2016-06-12T14:28:57.591Z,1003.3
2016-06-12T14:29:57.593Z,1003.32
2016-06-12T14:30:57.394Z,1003.33
2016-06-12T14:31:57.600Z,1003.32
2016-06-12T14:32:57.604Z,1003.32
2016-06-12T14:33:57.591Z,1003.33
2016-06-12T14:34:57.593Z,1003.37
2016-06-12T14:35:57.410Z,1003.37
2016-06-12T14:36:57.397Z,1003.39
2016-06-12T14:37:57.399Z,1003.39
2016-06-12T14:38:57.403Z,1003.45
2016-06-12T14:39:57.406Z,1003.43
2016-06-12T14:40:57.611Z,1003.41
2016-06-12T14:41:57.615Z,1003.44
2016-06-12T14:42:57.618Z,1003.46
2016-06-12T14:43:57.605Z,1003.5
2016-06-12T14:44:57.608Z,1003.49
2016-06-12T14:45:57.611Z,1003.49
2016-06-12T14:46:57.614Z,1003.47
2016-06-12T14:47:57.415Z,1003.46
2016-06-12T14:48:57.417Z,1003.47
2016-06-12T14:49:57.623Z,1003.45
2016-06-12T14:50:57.627Z,1003.46
2016-06-12T14:51:57.426Z,1003.45
2016-06-12T14:52:57.633Z,1003.35
2016-06-12T14:53:57.636Z,1003.32
2016-06-12T14:54:57.436Z,1003.29
2016-06-12T14:55:57.424Z,1003.29
2016-06-12T14:56:57.630Z,1003.32
2016-06-12T14:57:57.430Z,1003.32
2016-06-12T14:58:57.636Z,1003.31
2016-06-12T14:59:57.639Z,1003.26
2016-06-12T15:00:57.642Z,1003.24
2016-06-12T15:01:57.645Z,1003.23
2016-06-12T15:02:57.649Z,1003.25
2016-06-12T15:03:57.651Z,1003.22
2016-06-12T15:04:57.638Z,1003.19
2016-06-12T15:05:57.438Z,1003.22
2016-06-12T15:06:57.441Z,1003.19
2016-06-12T15:07:57.648Z,1003.23
2016-06-12T15:08:57.651Z,1003.17
2016-06-12T15:09:57.654Z,1003.19
2016-06-12T15:10:57.657Z,1003.16
2016-06-12T15:11:57.660Z,1003.16
2016-06-12T15:12:57.460Z,1003.17
2016-06-12T15:13:57.651Z,1003.16
2016-06-12T15:14:57.654Z,1003.12
2016-06-12T15:15:57.453Z,1003.12
2016-06-12T15:16:57.456Z,1003.13
2016-06-12T15:17:57.459Z,1003.1
2016-06-12T15:18:57.463Z,1003.08
2016-06-12T15:19:57.670Z,1003.05
2016-06-12T15:20:57.673Z,1002.99
2016-06-12T15:21:57.472Z,1002.98
2016-06-12T15:22:57.475Z,1003
2016-06-12T15:23:57.588Z,1002.96
2016-06-12T15:24:57.466Z,1002.93
2016-06-12T15:25:57.672Z,1002.88
2016-06-12T15:26:57.675Z,1002.9
2016-06-12T15:27:57.475Z,1002.85
2016-06-12T15:28:57.478Z,1002.84
2016-06-12T15:29:57.481Z,1002.84
2016-06-12T15:30:57.688Z,1002.82
2016-06-12T15:31:57.472Z,1002.92
2016-06-12T15:32:57.678Z,1002.93
2016-06-12T15:33:57.681Z,1002.92
2016-06-12T15:34:57.481Z,1002.94
2016-06-12T15:35:57.687Z,1002.92
2016-06-12T15:36:57.706Z,1002.87
2016-06-12T15:37:57.693Z,1002.88
2016-06-12T15:38:58.384Z,1002.84
2016-06-12T15:39:57.699Z,1002.8
2016-06-12T15:40:57.499Z,1002.83
2016-06-12T15:41:57.487Z,1002.81
2016-06-12T15:42:57.491Z,1002.81
2016-06-12T15:43:57.493Z,1002.85
2016-06-12T15:44:57.496Z,1002.79
2016-06-12T15:45:57.702Z,1002.79
2016-06-12T15:46:57.503Z,1002.76
2016-06-12T15:47:57.709Z,1002.75
2016-06-12T15:48:57.509Z,1002.73
2016-06-12T15:49:57.715Z,1002.74
2016-06-12T15:50:57.702Z,1002.72
2016-06-12T15:51:57.518Z,1002.67
2016-06-12T15:52:57.708Z,1002.65
2016-06-12T15:53:57.508Z,1002.65
2016-06-12T15:54:57.511Z,1002.58
2016-06-12T15:55:57.717Z,1002.58
2016-06-12T15:56:57.517Z,1002.57
2016-06-12T15:57:57.723Z,1002.53
2016-06-12T15:58:57.539Z,1002.53
2016-06-12T15:59:57.730Z,1002.53
2016-06-12T16:00:57.529Z,1002.47
2016-06-12T16:01:57.719Z,1002.5
2016-06-12T16:02:57.723Z,1002.48
2016-06-12T16:03:57.742Z,1002.46
2016-06-12T16:04:57.729Z,1002.45
2016-06-12T16:05:57.732Z,1002.43
2016-06-12T16:06:57.736Z,1002.44
2016-06-12T16:07:57.535Z,1002.4
2016-06-12T16:08:58.023Z,1002.42
2016-06-12T16:09:57.541Z,1002.45
2016-06-12T16:10:57.733Z,1002.41
2016-06-12T16:11:57.548Z,1002.42
2016-06-12T16:12:57.739Z,1002.42
2016-06-12T16:13:57.539Z,1002.42
2016-06-12T16:14:57.541Z,1002.41
2016-06-12T16:15:57.748Z,1002.41
2016-06-12T16:16:57.750Z,1002.42
2016-06-12T16:17:57.754Z,1002.42
2016-06-12T16:18:57.757Z,1002.43
2016-06-12T16:19:57.541Z,1002.42
2016-06-12T16:20:57.763Z,1002.48
2016-06-12T16:21:57.766Z,1002.44
2016-06-12T16:22:57.753Z,1002.43
2016-06-12T16:23:58.101Z,1002.42
2016-06-12T16:24:57.759Z,1002.43
2016-06-12T16:25:57.762Z,1002.5
2016-06-12T16:26:57.547Z,1002.49
2016-06-12T16:27:57.549Z,1002.53
2016-06-12T16:28:57.757Z,1002.54
2016-06-12T16:29:57.556Z,1002.54
2016-06-12T16:30:57.763Z,1002.53
2016-06-12T16:31:57.562Z,1002.56
2016-06-12T16:32:57.565Z,1002.53
2016-06-12T16:33:57.568Z,1002.54
2016-06-12T16:34:57.556Z,1002.59
2016-06-12T16:35:57.763Z,1002.59
2016-06-12T16:36:57.577Z,1002.58
2016-06-12T16:37:57.566Z,1002.61
2016-06-12T16:38:57.569Z,1002.64
2016-06-12T16:39:57.775Z,1002.62
2016-06-12T16:40:57.778Z,1002.63
2016-06-12T16:41:57.781Z,1002.65
2016-06-12T16:42:57.581Z,1002.68
2016-06-12T16:43:57.771Z,1002.67
2016-06-12T16:44:57.790Z,1002.7
2016-06-12T16:45:57.777Z,1002.71
2016-06-12T16:46:57.577Z,1002.71
2016-06-12T16:47:57.580Z,1002.73
2016-06-12T16:48:57.786Z,1002.72
2016-06-12T16:49:57.790Z,1002.75
2016-06-12T16:50:57.589Z,1002.72
2016-06-12T16:51:57.592Z,1002.72
2016-06-12T16:52:57.799Z,1002.72
2016-06-12T16:53:57.787Z,1002.75
2016-06-12T16:54:57.587Z,1002.8
2016-06-12T16:55:57.793Z,1002.76
2016-06-12T16:56:57.593Z,1002.82
2016-06-12T16:57:57.596Z,1002.82
2016-06-12T16:58:57.599Z,1002.84
2016-06-12T16:59:57.602Z,1002.85
2016-06-12T17:00:57.808Z,1002.77
2016-06-12T17:01:57.609Z,1002.79
2016-06-12T17:02:57.814Z,1002.77
2016-06-12T17:03:57.599Z,1002.74
2016-06-12T17:04:57.805Z,1002.77
2016-06-12T17:05:57.808Z,1002.76
2016-06-12T17:06:57.810Z,1002.79
2016-06-12T17:07:57.611Z,1002.75
2016-06-12T17:08:57.614Z,1002.77
2016-06-12T17:09:57.820Z,1002.78
2016-06-12T17:10:57.620Z,1002.79
2016-06-12T17:11:57.607Z,1002.78
2016-06-12T17:12:57.813Z,1002.76
2016-06-12T17:13:57.817Z,1002.83
2016-06-12T17:14:57.819Z,1002.78
2016-06-12T17:15:57.822Z,1002.81
2016-06-12T17:16:57.623Z,1002.81
2016-06-12T17:17:57.829Z,1002.78
2016-06-12T17:18:57.831Z,1002.75
2016-06-12T17:19:57.617Z,1002.78
2016-06-12T17:20:57.823Z,1002.77
2016-06-12T17:21:57.826Z,1002.79
2016-06-12T17:22:57.625Z,1002.74
2016-06-12T17:23:58.051Z,1002.75
2016-06-12T17:24:57.834Z,1002.72
2016-06-12T17:25:57.838Z,1002.76
2016-06-12T17:26:57.825Z,1002.73
2016-06-12T17:27:57.625Z,1002.75
2016-06-12T17:28:57.831Z,1002.75
2016-06-12T17:29:57.632Z,1002.76
2016-06-12T17:30:57.635Z,1002.76
2016-06-12T17:31:57.840Z,1002.69
2016-06-12T17:32:57.843Z,1002.75
2016-06-12T17:33:57.847Z,1002.72
2016-06-12T17:34:57.646Z,1002.7
2016-06-12T17:35:57.838Z,1002.7
2016-06-12T17:36:57.841Z,1002.7
2016-06-12T17:37:57.844Z,1002.71
2016-06-12T17:38:57.847Z,1002.71
2016-06-12T17:39:58.490Z,1002.73
2016-06-12T17:40:57.853Z,1002.79
2016-06-12T17:41:57.856Z,1002.74
2016-06-12T17:42:57.860Z,1002.74
2016-06-12T17:43:57.846Z,1002.76
2016-06-12T17:44:57.646Z,1002.75
2016-06-12T17:45:57.650Z,1002.76
2016-06-12T17:46:57.855Z,1002.74
2016-06-12T17:47:57.858Z,1002.69
2016-06-12T17:48:57.862Z,1002.74
2016-06-12T17:49:57.865Z,1002.69
2016-06-12T17:50:57.868Z,1002.71
2016-06-12T17:51:57.651Z,1002.71
2016-06-12T17:52:57.858Z,1002.71
2016-06-12T17:53:57.861Z,1002.69
2016-06-12T17:54:57.864Z,1002.69
2016-06-12T17:55:57.867Z,1002.73
2016-06-12T17:56:57.667Z,1002.71
2016-06-12T17:57:57.873Z,1002.71
2016-06-12T17:58:57.876Z,1002.7
2016-06-12T17:59:57.865Z,1002.67
2016-06-12T18:00:57.868Z,1002.66
2016-06-12T18:01:57.870Z,1002.64
2016-06-12T18:02:57.671Z,1002.67
2016-06-12T18:03:57.892Z,1002.65
2016-06-12T18:04:57.677Z,1002.64
2016-06-12T18:05:57.883Z,1002.64
2016-06-12T18:06:57.886Z,1002.62
2016-06-12T18:07:57.874Z,1002.63
2016-06-12T18:08:57.877Z,1002.59
2016-06-12T18:09:58.286Z,1002.61
2016-06-12T18:10:57.695Z,1002.55
2016-06-12T18:11:57.886Z,1002.57
2016-06-12T18:12:57.889Z,1002.52
2016-06-12T18:13:57.688Z,1002.55
2016-06-12T18:14:57.894Z,1002.52
2016-06-12T18:15:57.898Z,1002.48
2016-06-12T18:16:57.682Z,1002.48
2016-06-12T18:17:57.888Z,1002.46
2016-06-12T18:18:57.688Z,1002.42
2016-06-12T18:19:57.894Z,1002.43
2016-06-12T18:20:57.707Z,1002.43
2016-06-12T18:21:57.749Z,1002.39
2016-06-12T18:22:57.995Z,1002.39
2016-06-12T18:23:58.037Z,1002.34
2016-06-12T18:24:58.080Z,1002.35
2016-06-12T18:25:58.098Z,1002.36
2016-06-12T18:26:58.116Z,1002.38
2016-06-12T18:27:58.132Z,1002.31
2016-06-12T18:28:57.962Z,1002.34
2016-06-12T18:29:58.167Z,1002.32
2016-06-12T18:30:57.979Z,1002.34
2016-06-12T18:31:58.174Z,1002.35
2016-06-12T18:32:57.979Z,1002.37
2016-06-12T18:33:58.004Z,1002.33
2016-06-12T18:34:58.199Z,1002.34
2016-06-12T18:35:58.004Z,1002.3
2016-06-12T18:36:58.212Z,1002.26
2016-06-12T18:37:58.216Z,1002.3
2016-06-12T18:38:58.002Z,1002.29
2016-06-12T18:39:58.024Z,1002.28
2016-06-12T18:40:58.012Z,1002.26
2016-06-12T18:41:58.220Z,1002.28
2016-06-12T18:42:58.269Z,1002.27
2016-06-12T18:43:58.226Z,1002.26
2016-06-12T18:44:58.230Z,1002.22
2016-06-12T18:45:58.233Z,1002.27
2016-06-12T18:46:58.237Z,1002.25
2016-06-12T18:47:58.224Z,1002.23
2016-06-12T18:48:58.025Z,1002.25
2016-06-12T18:49:58.029Z,1002.2
2016-06-12T18:50:58.234Z,1002.18
2016-06-12T18:51:58.237Z,1002.19
2016-06-12T18:52:58.241Z,1002.16
2016-06-12T18:53:58.244Z,1002.17
2016-06-12T18:54:58.231Z,1002.16
2016-06-12T18:55:58.031Z,1002.16
2016-06-12T18:56:58.237Z,1002.14
2016-06-12T18:57:58.037Z,1002.15
2016-06-12T18:58:58.040Z,1002.16
2016-06-12T18:59:58.246Z,1002.11
2016-06-12T19:00:58.047Z,1002.09
2016-06-12T19:01:58.252Z,1002.04
2016-06-12T19:02:58.241Z,1002.02
2016-06-12T19:03:58.040Z,1002.02
2016-06-12T19:04:58.247Z,1002.02
2016-06-12T19:05:58.250Z,1002
2016-06-12T19:06:58.050Z,1002.01
2016-06-12T19:07:58.052Z,1002.04
2016-06-12T19:08:58.258Z,1002.05
2016-06-12T19:09:58.246Z,1002.03
2016-06-12T19:10:58.062Z,1002.02
2016-06-12T19:11:58.252Z,1002.01
2016-06-12T19:12:58.052Z,1002.02
2016-06-12T19:13:58.056Z,1002
2016-06-12T19:14:58.262Z,1001.98
2016-06-12T19:15:58.061Z,1002.05
2016-06-12T19:16:58.268Z,1002
2016-06-12T19:17:58.271Z,1002
2016-06-12T19:18:58.054Z,1002.01
2016-06-12T19:19:58.261Z,1001.99
2016-06-12T19:20:58.264Z,1001.99
2016-06-12T19:21:58.267Z,1001.99
2016-06-12T19:22:58.067Z,1001.97
2016-06-12T19:23:58.258Z,1001.94
2016-06-12T19:24:58.261Z,1001.95
2016-06-12T19:25:58.264Z,1001.95
2016-06-12T19:26:58.064Z,1001.94
2016-06-12T19:27:58.270Z,1001.91
2016-06-12T19:28:58.070Z,1001.91
2016-06-12T19:29:58.277Z,1001.9
2016-06-12T19:30:58.279Z,1001.91
2016-06-12T19:31:58.079Z,1001.91
2016-06-12T19:32:58.066Z,1001.93
2016-06-12T19:33:58.085Z,1001.89
2016-06-12T19:34:58.073Z,1001.9
2016-06-12T19:35:58.279Z,1001.89
2016-06-12T19:36:58.282Z,1001.91
2016-06-12T19:37:58.082Z,1001.87
2016-06-12T19:38:58.070Z,1001.92
2016-06-12T19:39:58.072Z,1001.89
2016-06-12T19:40:58.076Z,1001.94
2016-06-12T19:41:58.078Z,1001.94
2016-06-12T19:42:58.331Z,1001.96
2016-06-12T19:43:58.085Z,1002
2016-06-12T19:44:58.087Z,1001.98
2016-06-12T19:45:58.294Z,1002
2016-06-12T19:46:58.079Z,1002
2016-06-12T19:47:58.082Z,1001.97
2016-06-12T19:48:58.287Z,1001.99
2016-06-12T19:49:58.291Z,1001.96
2016-06-12T19:50:58.294Z,1001.96
2016-06-12T19:51:58.297Z,1002.01
2016-06-12T19:52:58.081Z,1002
2016-06-12T19:53:58.100Z,1002.01
2016-06-12T19:54:58.510Z,1001.99
2016-06-12T19:55:58.293Z,1001.97
2016-06-12T19:56:58.296Z,1001.96
2016-06-12T19:57:58.096Z,1001.98
2016-06-12T19:58:58.302Z,1001.97
2016-06-12T19:59:58.088Z,1001.95
2016-06-12T20:00:58.091Z,1001.95
2016-06-12T20:01:58.297Z,1001.95
2016-06-12T20:02:58.299Z,1001.96
2016-06-12T20:03:58.100Z,1002
2016-06-12T20:04:58.306Z,1002.01
2016-06-12T20:05:58.309Z,1002
2016-06-12T20:06:58.312Z,1002.03
2016-06-12T20:07:58.096Z,1002.02
2016-06-12T20:08:58.115Z,1002.06
2016-06-12T20:09:58.321Z,1002.06
2016-06-12T20:10:58.309Z,1002.07
2016-06-12T20:11:58.109Z,1002.06
2016-06-12T20:12:58.315Z,1002.05
2016-06-12T20:13:58.098Z,1002.06
2016-06-12T20:14:58.305Z,1002.03
2016-06-12T20:15:58.121Z,1001.99
2016-06-12T20:16:58.311Z,1001.99
2016-06-12T20:17:58.111Z,1001.99
2016-06-12T20:18:58.317Z,1001.97
2016-06-12T20:19:58.320Z,1001.94
2016-06-12T20:20:58.105Z,1001.94
2016-06-12T20:21:58.311Z,1001.91
2016-06-12T20:22:58.112Z,1001.89
2016-06-12T20:23:58.317Z,1001.88
2016-06-12T20:24:58.430Z,1001.88
2016-06-12T20:25:58.120Z,1001.89
2016-06-12T20:26:58.327Z,1001.92
2016-06-12T20:27:58.127Z,1001.96
2016-06-12T20:28:58.317Z,1001.92
2016-06-12T20:29:58.320Z,1001.9
2016-06-12T20:30:58.323Z,1001.92
2016-06-12T20:31:58.326Z,1001.89
2016-06-12T20:32:58.329Z,1001.92
2016-06-12T20:33:58.332Z,1001.91
2016-06-12T20:34:58.116Z,1001.94
2016-06-12T20:35:58.323Z,1001.89
2016-06-12T20:36:58.123Z,1001.91
2016-06-12T20:37:58.125Z,1001.91
2016-06-12T20:38:58.332Z,1001.89
2016-06-12T20:39:58.336Z,1001.9
2016-06-12T20:40:58.151Z,1001.89
2016-06-12T20:41:58.122Z,1001.88
2016-06-12T20:42:58.375Z,1001.84
2016-06-12T20:43:58.332Z,1001.83
2016-06-12T20:44:58.132Z,1001.8
2016-06-12T20:45:58.338Z,1001.79
2016-06-12T20:46:58.341Z,1001.8
2016-06-12T20:47:58.329Z,1001.81
2016-06-12T20:48:58.331Z,1001.79
2016-06-12T20:49:58.335Z,1001.8
2016-06-12T20:50:58.338Z,1001.76
2016-06-12T20:51:58.138Z,1001.79
2016-06-12T20:52:58.141Z,1001.82
2016-06-12T20:53:58.346Z,1001.81
2016-06-12T20:54:58.334Z,1001.83
2016-06-12T20:55:58.338Z,1001.87
2016-06-12T20:56:58.341Z,1001.89
2016-06-12T20:57:58.343Z,1001.88
2016-06-12T20:58:58.144Z,1001.87
2016-06-12T20:59:58.350Z,1001.85
2016-06-12T21:00:58.337Z,1001.89
2016-06-12T21:01:58.153Z,1001.87
2016-06-12T21:02:58.343Z,1001.87
2016-06-12T21:03:58.347Z,1001.86
2016-06-12T21:04:58.146Z,1001.9
2016-06-12T21:05:58.149Z,1001.9
2016-06-12T21:06:58.137Z,1001.9
2016-06-12T21:07:58.359Z,1001.9
2016-06-12T21:08:58.346Z,1001.88
2016-06-12T21:09:58.349Z,1001.87
2016-06-12T21:10:58.352Z,1001.84
2016-06-12T21:11:58.152Z,1001.82
2016-06-12T21:12:58.155Z,1001.83
2016-06-12T21:13:58.361Z,1001.81
2016-06-12T21:14:58.161Z,1001.79
2016-06-12T21:15:58.367Z,1001.73
2016-06-12T21:16:58.355Z,1001.72
2016-06-12T21:17:58.358Z,1001.69
2016-06-12T21:18:58.362Z,1001.67
2016-06-12T21:19:58.146Z,1001.62
2016-06-12T21:20:58.149Z,1001.67
2016-06-12T21:21:58.354Z,1001.65
2016-06-12T21:22:58.155Z,1001.6
2016-06-12T21:23:58.361Z,1001.63
2016-06-12T21:24:58.364Z,1001.6
2016-06-12T21:25:58.164Z,1001.57
2016-06-12T21:26:58.151Z,1001.57
2016-06-12T21:27:58.154Z,1001.54
2016-06-12T21:28:58.157Z,1001.54
2016-06-12T21:29:58.160Z,1001.56
2016-06-12T21:30:58.164Z,1001.51
2016-06-12T21:31:58.371Z,1001.54
2016-06-12T21:32:58.358Z,1001.5
2016-06-12T21:33:58.361Z,1001.51
2016-06-12T21:34:58.363Z,1001.5
2016-06-12T21:35:58.164Z,1001.49
2016-06-12T21:36:58.370Z,1001.51
2016-06-12T21:37:58.372Z,1001.48
2016-06-12T21:38:58.157Z,1001.53
2016-06-12T21:39:58.176Z,1001.56
2016-06-12T21:40:58.382Z,1001.49
2016-06-12T21:41:58.369Z,1001.5
2016-06-12T21:42:58.420Z,1001.49
2016-06-12T21:43:58.375Z,1001.47
2016-06-12T21:44:58.363Z,1001.44
2016-06-12T21:45:58.178Z,1001.45
2016-06-12T21:46:58.167Z,1001.43
2016-06-12T21:47:58.373Z,1001.42
2016-06-12T21:48:58.172Z,1001.43
2016-06-12T21:49:58.379Z,1001.35
2016-06-12T21:50:58.382Z,1001.38